sensor_id;sensor_type;location;lat;lon;timestamp;pressure;altitude;pressure_sealevel;temperature;humidity
74881;BME280;63427;49.654;6.596;2024-01-30T00:01:44;101014.68;;;6.83;43.30
74881;BME280;63427;49.654;6.596;2024-01-30T00:04:12;101014.52;;;7.10;43.26
74881;BME280;63427;49.654;6.596;2024-01-30T00:06:36;101011.43;;;7.23;42.75
74881;BME280;63427;49.654;6.596;2024-01-30T00:09:09;101008.99;;;6.97;42.60
74881;BME280;63427;49.654;6.596;2024-01-30T00:11:27;101006.80;;;6.80;42.81
74881;BME280;63427;49.654;6.596;2024-01-30T00:13:52;101008.86;;;6.59;43.10
74881;BME280;63427;49.654;6.596;2024-01-30T00:16:21;101009.73;;;6.93;42.83
74881;BME280;63427;49.654;6.596;2024-01-30T00:18:43;101008.37;;;6.70;42.58
74881;BME280;63427;49.654;6.596;2024-01-30T00:21:08;101007.28;;;7.13;42.35
74881;BME280;63427;49.654;6.596;2024-01-30T00:23:35;101008.90;;;6.61;42.24
74881;BME280;63427;49.654;6.596;2024-01-30T00:26:00;101006.21;;;6.85;42.21
74881;BME280;63427;49.654;6.596;2024-01-30T00:28:26;101005.41;;;6.70;42.01
74881;BME280;63427;49.654;6.596;2024-01-30T00:30:50;100999.23;;;6.43;42.02
74881;BME280;63427;49.654;6.596;2024-01-30T00:33:15;100998.88;;;6.68;42.08
74881;BME280;63427;49.654;6.596;2024-01-30T00:35:40;100995.95;;;6.68;41.89
74881;BME280;63427;49.654;6.596;2024-01-30T00:38:06;100992.35;;;6.21;42.21
74881;BME280;63427;49.654;6.596;2024-01-30T00:40:31;100989.65;;;6.42;42.46
74881;BME280;63427;49.654;6.596;2024-01-30T00:42:59;100992.33;;;6.54;42.26
74881;BME280;63427;49.654;6.596;2024-01-30T00:45:22;100993.01;;;6.29;42.14
74881;BME280;63427;49.654;6.596;2024-01-30T00:47:48;100992.53;;;6.27;42.36
74881;BME280;63427;49.654;6.596;2024-01-30T00:50:14;100993.70;;;6.29;42.32
74881;BME280;63427;49.654;6.596;2024-01-30T00:52:38;100991.19;;;6.59;42.17
74881;BME280;63427;49.654;6.596;2024-01-30T00:55:04;100988.00;;;6.62;42.02
74881;BME280;63427;49.654;6.596;2024-01-30T00:57:30;100993.47;;;6.36;41.96
74881;BME280;63427;49.654;6.596;2024-01-30T00:59:57;100991.67;;;6.44;42.65
74881;BME280;63427;49.654;6.596;2024-01-30T01:02:21;100988.85;;;6.48;42.61
74881;BME280;63427;49.654;6.596;2024-01-30T01:04:45;100989.36;;;6.11;42.54
74881;BME280;63427;49.654;6.596;2024-01-30T01:07:10;100989.54;;;6.41;42.70
74881;BME280;63427;49.654;6.596;2024-01-30T01:09:37;100988.52;;;6.26;43.04
74881;BME280;63427;49.654;6.596;2024-01-30T01:12:02;100991.77;;;6.05;43.34
74881;BME280;63427;49.654;6.596;2024-01-30T01:14:28;100996.79;;;6.10;43.28
74881;BME280;63427;49.654;6.596;2024-01-30T01:16:54;100995.33;;;5.98;43.02
74881;BME280;63427;49.654;6.596;2024-01-30T01:19:19;100994.97;;;6.13;42.78
74881;BME280;63427;49.654;6.596;2024-01-30T01:21:45;100993.75;;;6.08;43.01
74881;BME280;63427;49.654;6.596;2024-01-30T01:24:09;100993.40;;;6.19;42.84
74881;BME280;63427;49.654;6.596;2024-01-30T01:26:39;100994.77;;;6.20;42.84
74881;BME280;63427;49.654;6.596;2024-01-30T01:29:00;100998.79;;;6.17;43.03
74881;BME280;63427;49.654;6.596;2024-01-30T01:31:26;100995.00;;;6.38;42.87
74881;BME280;63427;49.654;6.596;2024-01-30T01:33:53;100995.60;;;6.23;42.92
74881;BME280;63427;49.654;6.596;2024-01-30T01:36:17;100992.71;;;5.95;42.74
74881;BME280;63427;49.654;6.596;2024-01-30T01:38:42;100993.55;;;5.85;42.69
74881;BME280;63427;49.654;6.596;2024-01-30T01:41:08;100991.98;;;6.16;42.63
74881;BME280;63427;49.654;6.596;2024-01-30T01:43:33;100988.85;;;6.18;42.74
74881;BME280;63427;49.654;6.596;2024-01-30T01:45:58;100990.17;;;6.22;42.94
74881;BME280;63427;49.654;6.596;2024-01-30T01:48:25;100986.93;;;6.26;43.01
74881;BME280;63427;49.654;6.596;2024-01-30T01:50:49;100989.02;;;5.87;43.30
74881;BME280;63427;49.654;6.596;2024-01-30T01:53:16;100984.36;;;6.20;43.07
74881;BME280;63427;49.654;6.596;2024-01-30T01:55:40;100987.93;;;6.19;43.03
74881;BME280;63427;49.654;6.596;2024-01-30T01:58:05;100992.09;;;6.07;43.14
74881;BME280;63427;49.654;6.596;2024-01-30T02:00:31;100990.21;;;6.02;43.17
74881;BME280;63427;49.654;6.596;2024-01-30T02:02:56;100989.27;;;6.12;42.81
74881;BME280;63427;49.654;6.596;2024-01-30T02:05:23;100990.91;;;5.97;42.85
74881;BME280;63427;49.654;6.596;2024-01-30T02:07:49;100990.25;;;6.03;42.50
74881;BME280;63427;49.654;6.596;2024-01-30T02:10:12;100990.57;;;6.07;42.48
74881;BME280;63427;49.654;6.596;2024-01-30T02:12:39;100988.34;;;5.90;42.67
74881;BME280;63427;49.654;6.596;2024-01-30T02:15:03;100989.30;;;5.90;42.55
74881;BME280;63427;49.654;6.596;2024-01-30T02:17:26;100991.37;;;6.03;42.38
74881;BME280;63427;49.654;6.596;2024-01-30T02:19:52;100996.27;;;6.08;42.44
74881;BME280;63427;49.654;6.596;2024-01-30T02:22:18;100993.99;;;5.66;42.49
74881;BME280;63427;49.654;6.596;2024-01-30T02:24:43;100992.26;;;5.89;42.28
74881;BME280;63427;49.654;6.596;2024-01-30T02:27:08;100992.49;;;5.81;42.40
74881;BME280;63427;49.654;6.596;2024-01-30T02:29:34;100989.94;;;6.19;42.08
74881;BME280;63427;49.654;6.596;2024-01-30T02:31:59;100988.70;;;5.74;42.30
74881;BME280;63427;49.654;6.596;2024-01-30T02:34:24;100989.23;;;5.87;42.29
74881;BME280;63427;49.654;6.596;2024-01-30T02:36:51;100987.72;;;5.91;42.48
74881;BME280;63427;49.654;6.596;2024-01-30T02:39:16;100988.23;;;5.75;42.42
74881;BME280;63427;49.654;6.596;2024-01-30T02:41:41;100989.25;;;5.58;42.71
74881;BME280;63427;49.654;6.596;2024-01-30T02:44:06;100990.14;;;5.51;43.00
74881;BME280;63427;49.654;6.596;2024-01-30T02:46:31;100987.79;;;5.72;42.89
74881;BME280;63427;49.654;6.596;2024-01-30T02:48:57;100991.45;;;5.49;43.47
74881;BME280;63427;49.654;6.596;2024-01-30T02:51:23;100993.83;;;5.42;43.84
74881;BME280;63427;49.654;6.596;2024-01-30T02:53:48;100991.97;;;5.54;43.81
74881;BME280;63427;49.654;6.596;2024-01-30T02:56:14;100990.91;;;5.50;43.88
74881;BME280;63427;49.654;6.596;2024-01-30T02:58:40;100987.37;;;5.79;43.92
74881;BME280;63427;49.654;6.596;2024-01-30T03:01:04;100987.26;;;5.57;43.73
74881;BME280;63427;49.654;6.596;2024-01-30T03:03:31;100985.69;;;5.95;43.23
74881;BME280;63427;49.654;6.596;2024-01-30T03:05:55;100982.45;;;5.42;43.52
74881;BME280;63427;49.654;6.596;2024-01-30T03:08:20;100981.70;;;5.81;43.32
74881;BME280;63427;49.654;6.596;2024-01-30T03:10:47;100983.72;;;5.44;43.34
74881;BME280;63427;49.654;6.596;2024-01-30T03:13:11;100984.43;;;5.74;43.40
74881;BME280;63427;49.654;6.596;2024-01-30T03:15:38;100983.65;;;5.66;43.39
74881;BME280;63427;49.654;6.596;2024-01-30T03:18:02;100986.26;;;6.08;43.27
74881;BME280;63427;49.654;6.596;2024-01-30T03:20:27;100983.83;;;5.64;43.25
74881;BME280;63427;49.654;6.596;2024-01-30T03:22:53;100984.29;;;5.89;43.23
74881;BME280;63427;49.654;6.596;2024-01-30T03:25:18;100984.83;;;5.95;43.43
74881;BME280;63427;49.654;6.596;2024-01-30T03:27:43;100984.35;;;5.93;43.22
74881;BME280;63427;49.654;6.596;2024-01-30T03:30:10;100983.92;;;5.86;43.08
74881;BME280;63427;49.654;6.596;2024-01-30T03:32:37;100982.12;;;5.77;43.25
74881;BME280;63427;49.654;6.596;2024-01-30T03:35:00;100981.95;;;5.81;43.15
74881;BME280;63427;49.654;6.596;2024-01-30T03:37:25;100982.62;;;5.89;42.83
74881;BME280;63427;49.654;6.596;2024-01-30T03:39:54;100983.27;;;5.90;42.65
74881;BME280;63427;49.654;6.596;2024-01-30T03:42:16;100982.37;;;5.74;42.96
74881;BME280;63427;49.654;6.596;2024-01-30T03:44:41;100984.50;;;5.85;43.03
74881;BME280;63427;49.654;6.596;2024-01-30T03:47:06;100982.22;;;5.90;42.76
74881;BME280;63427;49.654;6.596;2024-01-30T03:49:32;100980.82;;;5.94;42.57
74881;BME280;63427;49.654;6.596;2024-01-30T03:51:58;100982.41;;;5.93;42.59
74881;BME280;63427;49.654;6.596;2024-01-30T03:54:22;100981.38;;;5.73;42.86
74881;BME280;63427;49.654;6.596;2024-01-30T03:56:48;100981.85;;;5.89;42.64
74881;BME280;63427;49.654;6.596;2024-01-30T03:59:13;100980.86;;;5.60;42.86
74881;BME280;63427;49.654;6.596;2024-01-30T04:01:38;100982.66;;;5.87;42.33
74881;BME280;63427;49.654;6.596;2024-01-30T04:04:08;100983.64;;;5.65;42.57
74881;BME280;63427;49.654;6.596;2024-01-30T04:06:29;100979.13;;;5.61;42.59
74881;BME280;63427;49.654;6.596;2024-01-30T04:08:54;100986.07;;;5.77;42.32
74881;BME280;63427;49.654;6.596;2024-01-30T04:11:19;100988.11;;;5.60;42.20
74881;BME280;63427;49.654;6.596;2024-01-30T04:13:45;100988.64;;;5.66;42.23
74881;BME280;63427;49.654;6.596;2024-01-30T04:16:20;100988.78;;;5.71;42.14
74881;BME280;63427;49.654;6.596;2024-01-30T04:18:36;100987.24;;;5.60;42.09
74881;BME280;63427;49.654;6.596;2024-01-30T04:21:01;100990.39;;;5.70;41.79
74881;BME280;63427;49.654;6.596;2024-01-30T04:23:25;100989.88;;;5.62;41.81
74881;BME280;63427;49.654;6.596;2024-01-30T04:25:52;100990.30;;;5.81;41.47
74881;BME280;63427;49.654;6.596;2024-01-30T04:28:18;100986.21;;;5.75;41.66
74881;BME280;63427;49.654;6.596;2024-01-30T04:30:42;100988.49;;;5.50;41.67
74881;BME280;63427;49.654;6.596;2024-01-30T04:33:09;100989.90;;;5.73;41.83
74881;BME280;63427;49.654;6.596;2024-01-30T04:35:32;100990.43;;;5.91;42.45
74881;BME280;63427;49.654;6.596;2024-01-30T04:37:58;100993.55;;;5.69;42.40
74881;BME280;63427;49.654;6.596;2024-01-30T04:40:24;100994.74;;;5.44;42.76
74881;BME280;63427;49.654;6.596;2024-01-30T04:42:48;100999.16;;;5.42;42.82
74881;BME280;63427;49.654;6.596;2024-01-30T04:45:13;100995.96;;;5.85;42.80
74881;BME280;63427;49.654;6.596;2024-01-30T04:47:39;100991.29;;;5.58;42.30
74881;BME280;63427;49.654;6.596;2024-01-30T04:50:09;100990.31;;;5.69;42.30
74881;BME280;63427;49.654;6.596;2024-01-30T04:52:31;100992.39;;;5.43;42.12
74881;BME280;63427;49.654;6.596;2024-01-30T04:54:56;100989.11;;;5.67;42.22
74881;BME280;63427;49.654;6.596;2024-01-30T04:57:21;100991.88;;;5.39;42.09
74881;BME280;63427;49.654;6.596;2024-01-30T04:59:47;100986.86;;;5.60;41.56
74881;BME280;63427;49.654;6.596;2024-01-30T05:02:14;100988.55;;;5.40;42.12
74881;BME280;63427;49.654;6.596;2024-01-30T05:04:38;100992.06;;;5.44;42.38
74881;BME280;63427;49.654;6.596;2024-01-30T05:07:03;100987.79;;;5.49;42.09
74881;BME280;63427;49.654;6.596;2024-01-30T05:09:30;100988.12;;;5.47;42.18
74881;BME280;63427;49.654;6.596;2024-01-30T05:11:54;100993.37;;;5.82;42.11
74881;BME280;63427;49.654;6.596;2024-01-30T05:14:20;100992.86;;;5.38;42.10
74881;BME280;63427;49.654;6.596;2024-01-30T05:16:45;100993.81;;;5.31;42.03
74881;BME280;63427;49.654;6.596;2024-01-30T05:19:09;100991.87;;;5.42;41.68
74881;BME280;63427;49.654;6.596;2024-01-30T05:28:52;100995.91;;;5.56;41.40
74881;BME280;63427;49.654;6.596;2024-01-30T05:31:16;100998.18;;;5.42;41.76
74881;BME280;63427;49.654;6.596;2024-01-30T05:33:42;100997.21;;;5.33;41.55
74881;BME280;63427;49.654;6.596;2024-01-30T05:36:07;100999.56;;;5.66;42.03
74881;BME280;63427;49.654;6.596;2024-01-30T05:38:32;100999.72;;;5.40;42.13
74881;BME280;63427;49.654;6.596;2024-01-30T05:40:58;101005.60;;;5.11;42.12
74881;BME280;63427;49.654;6.596;2024-01-30T05:43:24;101004.93;;;5.28;42.34
74881;BME280;63427;49.654;6.596;2024-01-30T05:45:50;101003.18;;;5.49;42.18
74881;BME280;63427;49.654;6.596;2024-01-30T05:48:14;101000.33;;;5.37;42.12
74881;BME280;63427;49.654;6.596;2024-01-30T05:50:40;101001.64;;;4.91;42.27
74881;BME280;63427;49.654;6.596;2024-01-30T05:53:05;100998.01;;;5.40;42.56
74881;BME280;63427;49.654;6.596;2024-01-30T05:55:32;100997.30;;;4.96;42.73
74881;BME280;63427;49.654;6.596;2024-01-30T05:57:58;100992.72;;;5.38;42.69
74881;BME280;63427;49.654;6.596;2024-01-30T06:00:22;100996.94;;;4.99;42.48
74881;BME280;63427;49.654;6.596;2024-01-30T06:02:46;100995.06;;;5.00;42.36
74881;BME280;63427;49.654;6.596;2024-01-30T06:05:12;100999.83;;;5.31;42.57
74881;BME280;63427;49.654;6.596;2024-01-30T06:07:39;100998.97;;;4.88;42.39
74881;BME280;63427;49.654;6.596;2024-01-30T06:10:04;100999.05;;;5.06;42.48
74881;BME280;63427;49.654;6.596;2024-01-30T06:12:29;101004.41;;;5.44;42.40
74881;BME280;63427;49.654;6.596;2024-01-30T06:14:54;101001.01;;;5.60;41.74
74881;BME280;63427;49.654;6.596;2024-01-30T06:17:20;101001.04;;;5.54;41.86
74881;BME280;63427;49.654;6.596;2024-01-30T06:19:44;100995.14;;;5.41;41.83
74881;BME280;63427;49.654;6.596;2024-01-30T06:22:10;100990.22;;;5.22;41.84
74881;BME280;63427;49.654;6.596;2024-01-30T06:24:35;100994.26;;;5.46;41.53
74881;BME280;63427;49.654;6.596;2024-01-30T06:27:02;100994.23;;;5.29;42.04
74881;BME280;63427;49.654;6.596;2024-01-30T06:29:27;100997.92;;;5.58;41.43
74881;BME280;63427;49.654;6.596;2024-01-30T06:31:51;101000.01;;;5.52;41.58
74881;BME280;63427;49.654;6.596;2024-01-30T06:34:17;100996.26;;;5.45;41.87
74881;BME280;63427;49.654;6.596;2024-01-30T06:36:43;100993.63;;;5.29;42.27
74881;BME280;63427;49.654;6.596;2024-01-30T06:39:08;100993.80;;;5.54;42.05
74881;BME280;63427;49.654;6.596;2024-01-30T06:41:34;100994.46;;;5.61;41.97
74881;BME280;63427;49.654;6.596;2024-01-30T06:44:01;100989.59;;;5.04;41.94
74881;BME280;63427;49.654;6.596;2024-01-30T06:46:24;100989.60;;;5.24;42.42
74881;BME280;63427;49.654;6.596;2024-01-30T06:48:50;100987.22;;;5.44;42.01
74881;BME280;63427;49.654;6.596;2024-01-30T06:51:15;100990.82;;;5.43;42.05
74881;BME280;63427;49.654;6.596;2024-01-30T06:53:43;100990.73;;;5.42;41.98
74881;BME280;63427;49.654;6.596;2024-01-30T06:56:06;100988.68;;;5.44;42.27
74881;BME280;63427;49.654;6.596;2024-01-30T06:58:32;100994.78;;;5.23;42.33
74881;BME280;63427;49.654;6.596;2024-01-30T07:00:57;101001.64;;;5.53;42.30
74881;BME280;63427;49.654;6.596;2024-01-30T07:03:22;101003.57;;;5.64;42.17
74881;BME280;63427;49.654;6.596;2024-01-30T07:05:48;101008.21;;;5.39;42.07
74881;BME280;63427;49.654;6.596;2024-01-30T07:08:13;101003.45;;;5.47;42.17
74881;BME280;63427;49.654;6.596;2024-01-30T07:10:38;101004.90;;;5.39;42.02
74881;BME280;63427;49.654;6.596;2024-01-30T07:13:04;101006.42;;;5.58;42.31
74881;BME280;63427;49.654;6.596;2024-01-30T07:15:31;101005.59;;;5.27;41.87
74881;BME280;63427;49.654;6.596;2024-01-30T07:17:55;101004.35;;;5.49;41.83
74881;BME280;63427;49.654;6.596;2024-01-30T07:20:22;101006.99;;;5.49;41.85
74881;BME280;63427;49.654;6.596;2024-01-30T07:22:47;101003.84;;;5.37;42.02
74881;BME280;63427;49.654;6.596;2024-01-30T07:25:13;101003.11;;;5.54;42.33
74881;BME280;63427;49.654;6.596;2024-01-30T07:27:37;101008.58;;;5.61;42.50
74881;BME280;63427;49.654;6.596;2024-01-30T07:30:02;101013.67;;;5.86;42.41
74881;BME280;63427;49.654;6.596;2024-01-30T07:32:28;101016.69;;;5.78;42.56
74881;BME280;63427;49.654;6.596;2024-01-30T07:34:54;101018.73;;;6.02;42.28
74881;BME280;63427;49.654;6.596;2024-01-30T07:37:18;101021.44;;;6.00;42.40
74881;BME280;63427;49.654;6.596;2024-01-30T07:39:43;101020.67;;;5.69;42.15
74881;BME280;63427;49.654;6.596;2024-01-30T07:42:09;101027.21;;;5.93;42.29
74881;BME280;63427;49.654;6.596;2024-01-30T07:44:34;101029.20;;;5.55;42.52
74881;BME280;63427;49.654;6.596;2024-01-30T07:46:59;101027.11;;;5.59;42.94
74881;BME280;63427;49.654;6.596;2024-01-30T07:49:30;101027.64;;;5.75;42.76
74881;BME280;63427;49.654;6.596;2024-01-30T07:52:03;101027.52;;;5.91;42.67
74881;BME280;63427;49.654;6.596;2024-01-30T07:54:16;101028.81;;;5.71;42.56
74881;BME280;63427;49.654;6.596;2024-01-30T07:56:42;101027.81;;;5.96;42.57
74881;BME280;63427;49.654;6.596;2024-01-30T07:59:10;101027.54;;;6.04;42.52
74881;BME280;63427;49.654;6.596;2024-01-30T08:01:32;101029.78;;;6.47;42.34
74881;BME280;63427;49.654;6.596;2024-01-30T08:04:00;101032.85;;;5.90;42.77
74881;BME280;63427;49.654;6.596;2024-01-30T08:06:26;101034.79;;;6.18;42.39
74881;BME280;63427;49.654;6.596;2024-01-30T08:08:49;101035.21;;;6.35;43.07
74881;BME280;63427;49.654;6.596;2024-01-30T08:11:21;101036.58;;;6.60;43.35
74881;BME280;63427;49.654;6.596;2024-01-30T08:13:40;101034.17;;;6.46;43.54
74881;BME280;63427;49.654;6.596;2024-01-30T08:16:05;101031.38;;;6.35;43.46
74881;BME280;63427;49.654;6.596;2024-01-30T08:18:29;101031.22;;;6.66;43.79
74881;BME280;63427;49.654;6.596;2024-01-30T08:20:56;101030.66;;;6.56;43.74
74881;BME280;63427;49.654;6.596;2024-01-30T08:23:20;101030.73;;;6.68;44.05
74881;BME280;63427;49.654;6.596;2024-01-30T08:25:46;101026.28;;;6.52;44.17
74881;BME280;63427;49.654;6.596;2024-01-30T08:28:11;101027.69;;;6.75;43.82
74881;BME280;63427;49.654;6.596;2024-01-30T08:30:40;101029.20;;;6.81;44.21
74881;BME280;63427;49.654;6.596;2024-01-30T08:33:01;101033.68;;;6.81;44.32
74881;BME280;63427;49.654;6.596;2024-01-30T08:35:29;101036.22;;;6.82;44.85
74881;BME280;63427;49.654;6.596;2024-01-30T08:37:53;101031.70;;;7.21;44.44
74881;BME280;63427;49.654;6.596;2024-01-30T08:40:18;101033.61;;;7.31;44.65
74881;BME280;63427;49.654;6.596;2024-01-30T08:42:43;101032.98;;;7.51;44.51
74881;BME280;63427;49.654;6.596;2024-01-30T08:45:09;101038.89;;;7.44;44.87
74881;BME280;63427;49.654;6.596;2024-01-30T08:47:35;101049.70;;;7.24;45.49
74881;BME280;63427;49.654;6.596;2024-01-30T08:50:02;101053.80;;;7.24;45.46
74881;BME280;63427;49.654;6.596;2024-01-30T08:52:25;101055.96;;;7.64;45.14
74881;BME280;63427;49.654;6.596;2024-01-30T08:54:50;101056.04;;;7.65;45.15
74881;BME280;63427;49.654;6.596;2024-01-30T08:57:16;101057.44;;;7.77;44.90
74881;BME280;63427;49.654;6.596;2024-01-30T08:59:41;101055.33;;;8.02;44.83
74881;BME280;63427;49.654;6.596;2024-01-30T09:02:06;101050.28;;;7.92;45.01
74881;BME280;63427;49.654;6.596;2024-01-30T09:04:32;101047.73;;;8.16;44.82
74881;BME280;63427;49.654;6.596;2024-01-30T09:06:59;101052.45;;;8.35;44.73
74881;BME280;63427;49.654;6.596;2024-01-30T09:09:24;101049.18;;;8.39;45.13
74881;BME280;63427;49.654;6.596;2024-01-30T09:11:48;101052.38;;;7.99;45.01
74881;BME280;63427;49.654;6.596;2024-01-30T09:14:13;101056.56;;;8.59;44.58
74881;BME280;63427;49.654;6.596;2024-01-30T09:16:40;101056.84;;;8.61;44.53
74881;BME280;63427;49.654;6.596;2024-01-30T09:19:04;101061.82;;;8.51;44.64
74881;BME280;63427;49.654;6.596;2024-01-30T09:21:30;101067.69;;;9.44;44.17
74881;BME280;63427;49.654;6.596;2024-01-30T09:24:01;101071.28;;;9.02;44.21
74881;BME280;63427;49.654;6.596;2024-01-30T09:26:22;101067.63;;;9.17;44.17
74881;BME280;63427;49.654;6.596;2024-01-30T09:28:46;101063.90;;;9.51;44.26
74881;BME280;63427;49.654;6.596;2024-01-30T09:31:12;101059.56;;;9.61;43.90
74881;BME280;63427;49.654;6.596;2024-01-30T09:33:37;101049.65;;;9.63;44.22
74881;BME280;63427;49.654;6.596;2024-01-30T09:36:16;101053.77;;;9.13;43.89
74881;BME280;63427;49.654;6.596;2024-01-30T09:38:28;101060.17;;;9.48;43.06
74881;BME280;63427;49.654;6.596;2024-01-30T09:40:54;101063.16;;;9.48;43.57
74881;BME280;63427;49.654;6.596;2024-01-30T09:43:22;101073.01;;;9.29;43.43
74881;BME280;63427;49.654;6.596;2024-01-30T09:45:46;101079.12;;;9.17;43.26
74881;BME280;63427;49.654;6.596;2024-01-30T09:48:09;101079.55;;;9.46;43.08
74881;BME280;63427;49.654;6.596;2024-01-30T09:50:36;101084.22;;;9.69;43.50
74881;BME280;63427;49.654;6.596;2024-01-30T09:53:07;101087.78;;;9.65;43.35
74881;BME280;63427;49.654;6.596;2024-01-30T09:55:26;101087.03;;;9.78;43.18
74881;BME280;63427;49.654;6.596;2024-01-30T09:57:51;101090.10;;;10.05;43.08
74881;BME280;63427;49.654;6.596;2024-01-30T10:00:18;101095.28;;;10.14;42.99
74881;BME280;63427;49.654;6.596;2024-01-30T10:02:43;101090.02;;;10.12;42.02
74881;BME280;63427;49.654;6.596;2024-01-30T10:05:10;101087.38;;;10.19;42.57
74881;BME280;63427;49.654;6.596;2024-01-30T10:07:34;101088.28;;;10.48;42.43
74881;BME280;63427;49.654;6.596;2024-01-30T10:09:59;101083.49;;;10.53;42.33
74881;BME280;63427;49.654;6.596;2024-01-30T10:12:26;101083.00;;;10.60;42.16
74881;BME280;63427;49.654;6.596;2024-01-30T10:14:50;101089.47;;;10.63;42.05
74881;BME280;63427;49.654;6.596;2024-01-30T10:17:16;101085.49;;;10.93;41.52
74881;BME280;63427;49.654;6.596;2024-01-30T10:19:43;101092.93;;;11.00;42.01
74881;BME280;63427;49.654;6.596;2024-01-30T10:22:09;101093.99;;;11.10;41.14
74881;BME280;63427;49.654;6.596;2024-01-30T10:24:33;101092.59;;;11.14;40.91
74881;BME280;63427;49.654;6.596;2024-01-30T10:26:58;101097.96;;;11.06;40.93
74881;BME280;63427;49.654;6.596;2024-01-30T10:29:22;101105.27;;;11.08;40.32
74881;BME280;63427;49.654;6.596;2024-01-30T10:31:57;101106.96;;;11.39;40.53
74881;BME280;63427;49.654;6.596;2024-01-30T10:34:14;101105.01;;;11.39;40.56
74881;BME280;63427;49.654;6.596;2024-01-30T10:36:40;101096.93;;;10.93;40.36
74881;BME280;63427;49.654;6.596;2024-01-30T10:39:05;101097.71;;;11.33;40.05
74881;BME280;63427;49.654;6.596;2024-01-30T10:41:33;101099.49;;;11.38;39.41
74881;BME280;63427;49.654;6.596;2024-01-30T10:44:02;101099.09;;;11.84;39.38
74881;BME280;63427;49.654;6.596;2024-01-30T10:46:21;101096.62;;;11.48;39.79
74881;BME280;63427;49.654;6.596;2024-01-30T10:48:58;101103.52;;;11.61;39.40
74881;BME280;63427;49.654;6.596;2024-01-30T10:51:11;101097.89;;;11.83;38.91
74881;BME280;63427;49.654;6.596;2024-01-30T10:53:37;101102.66;;;11.99;38.80
74881;BME280;63427;49.654;6.596;2024-01-30T10:56:04;101103.71;;;12.10;38.77
74881;BME280;63427;49.654;6.596;2024-01-30T10:58:27;101104.80;;;12.04;38.86
74881;BME280;63427;49.654;6.596;2024-01-30T11:00:55;101099.14;;;12.08;38.90
74881;BME280;63427;49.654;6.596;2024-01-30T11:03:18;101088.57;;;12.36;38.67
74881;BME280;63427;49.654;6.596;2024-01-30T11:05:43;101073.86;;;12.39;38.55
74881;BME280;63427;49.654;6.596;2024-01-30T11:08:12;101075.47;;;12.23;38.63
74881;BME280;63427;49.654;6.596;2024-01-30T11:10:46;101070.41;;;12.49;38.64
74881;BME280;63427;49.654;6.596;2024-01-30T11:13:10;101067.83;;;12.84;38.39
74881;BME280;63427;49.654;6.596;2024-01-30T11:15:28;101074.19;;;12.92;38.27
74881;BME280;63427;49.654;6.596;2024-01-30T11:17:53;101068.58;;;12.73;37.92
74881;BME280;63427;49.654;6.596;2024-01-30T11:20:22;101075.79;;;12.07;38.24
74881;BME280;63427;49.654;6.596;2024-01-30T12:37:49;101037.29;;;13.47;37.37
74881;BME280;63427;49.654;6.596;2024-01-30T12:40:16;101045.25;;;13.60;37.34
74881;BME280;63427;49.654;6.596;2024-01-30T12:42:40;101039.70;;;13.70;37.11
74881;BME280;63427;49.654;6.596;2024-01-30T12:45:06;101044.76;;;13.52;37.11
74881;BME280;63427;49.654;6.596;2024-01-30T12:47:31;101045.42;;;13.64;37.16
74881;BME280;63427;49.654;6.596;2024-01-30T12:49:57;101041.50;;;13.49;37.47
74881;BME280;63427;49.654;6.596;2024-01-30T12:52:22;101042.41;;;13.45;37.87
74881;BME280;63427;49.654;6.596;2024-01-30T12:54:46;101042.14;;;12.92;37.66
74881;BME280;63427;49.654;6.596;2024-01-30T12:57:12;101043.98;;;13.68;36.95
74881;BME280;63427;49.654;6.596;2024-01-30T12:59:41;101045.60;;;13.29;37.84
74881;BME280;63427;49.654;6.596;2024-01-30T13:02:03;101041.71;;;13.30;37.77
74881;BME280;63427;49.654;6.596;2024-01-30T13:04:29;101031.81;;;12.72;38.37
74881;BME280;63427;49.654;6.596;2024-01-30T13:06:54;101034.48;;;13.11;38.24
74881;BME280;63427;49.654;6.596;2024-01-30T13:09:20;101039.81;;;13.06;38.10
74881;BME280;63427;49.654;6.596;2024-01-30T13:11:45;101044.00;;;13.55;37.70
74881;BME280;63427;49.654;6.596;2024-01-30T13:14:09;101047.22;;;12.09;39.45
74881;BME280;63427;49.654;6.596;2024-01-30T13:16:36;101046.40;;;12.65;39.28
74881;BME280;63427;49.654;6.596;2024-01-30T13:19:01;101046.54;;;13.19;38.55
74881;BME280;63427;49.654;6.596;2024-01-30T13:21:27;101045.90;;;12.78;39.10
74881;BME280;63427;49.654;6.596;2024-01-30T13:23:53;101047.93;;;13.02;38.79
74881;BME280;63427;49.654;6.596;2024-01-30T13:26:16;101042.20;;;12.73;38.80
74881;BME280;63427;49.654;6.596;2024-01-30T13:28:42;101042.42;;;13.40;39.06
74881;BME280;63427;49.654;6.596;2024-01-30T13:31:09;101047.35;;;13.26;38.33
74881;BME280;63427;49.654;6.596;2024-01-30T13:33:33;101049.17;;;13.48;38.15
74881;BME280;63427;49.654;6.596;2024-01-30T13:35:58;101047.08;;;13.12;38.29
74881;BME280;63427;49.654;6.596;2024-01-30T13:38:24;101043.17;;;13.50;38.18
74881;BME280;63427;49.654;6.596;2024-01-30T13:40:49;101041.86;;;13.57;38.22
74881;BME280;63427;49.654;6.596;2024-01-30T13:43:16;101043.08;;;13.38;38.45
74881;BME280;63427;49.654;6.596;2024-01-30T13:45:42;101043.19;;;13.68;37.96
74881;BME280;63427;49.654;6.596;2024-01-30T13:48:06;101045.59;;;13.51;37.63
74881;BME280;63427;49.654;6.596;2024-01-30T13:50:38;101051.44;;;13.94;37.70
74881;BME280;63427;49.654;6.596;2024-01-30T13:52:58;101050.55;;;13.83;37.91
74881;BME280;63427;49.654;6.596;2024-01-30T13:55:25;101054.09;;;13.59;38.81
74881;BME280;63427;49.654;6.596;2024-01-30T13:57:50;101053.34;;;13.69;38.25
74881;BME280;63427;49.654;6.596;2024-01-30T14:00:14;101050.87;;;13.54;38.33
74881;BME280;63427;49.654;6.596;2024-01-30T14:02:39;101048.57;;;13.77;37.81
74881;BME280;63427;49.654;6.596;2024-01-30T14:05:05;101046.82;;;13.61;38.23
74881;BME280;63427;49.654;6.596;2024-01-30T14:07:31;101049.19;;;13.85;37.87
74881;BME280;63427;49.654;6.596;2024-01-30T14:09:55;101048.70;;;13.44;38.73